Portada
METAR-TAF:

METAR-TAF

Aeropuertos :

Ljungbyhed, Suecia

latitud: 56-04N, longitud: 013-12E, altitud: 43 m

Observación

El informe se hizo hace 29 minutos, a las 01:20 UTC
Viento 22 kt del oeste con ráfagas de 33 kt
Temperatura 4°C
Humedad 75%
Presión 995 hPa
Visibilidad 10 km o más

METAR: ESTL 030120Z AUTO 27022G33KT 9999 BKN023/// BKN034/// 04/00 Q0995

Hora: 03:49 (01:49 UTC)

Pronóstico

El informe se hizo hace 14 horas y 36 minutos, a las 11:13 UTC
Pronóstico válido del 02 a las 12 UTC al 02 a las 15 UTC
Viento 18 kt del oeste
Visibilidad 10 km o más
Cielo nuboso a una altura de 2000 ft
Temporalmente
del 02 a las 12 UTC al 02 a las 15 UTC
Viento 20 kt del oeste-suroeste con ráfagas de 35 kt

TAF: ESTL 021113Z 0212/0215 27018KT 9999 BKN020 TEMPO 0212/0215 25020G35KT

Observaciones y pronósticos meteorológicos de más de 4000 aeropuertos (mensajes METAR y TAF).

Los puntos amarillos y rojos representan las estaciones disponibles.

Ponga el ratón en el punto deseado para ver el nombre de la estación.

Haga clic para ver las observaciones y los pronósticos meteorológicos.

Para cambiar el mapa : haga clic en los botones verdes con una cruz de color negro para hacer un zoom, en el botón verde con un guión para alejar o en las flechas verdes para mapas adyacentes.


METAR-TAF: